sensor_id;sensor_type;location;lat;lon;timestamp;P1;durP1;ratioP1;P2;durP2;ratioP2
12290;SDS011;6208;48.956;9.076;2023-05-18T00:00:35;6.30;;;4.55;;
12290;SDS011;6208;48.956;9.076;2023-05-18T00:03:20;5.67;;;5.17;;
12290;SDS011;6208;48.956;9.076;2023-05-18T00:06:04;6.40;;;5.40;;
12290;SDS011;6208;48.956;9.076;2023-05-18T00:08:50;5.90;;;5.30;;
12290;SDS011;6208;48.956;9.076;2023-05-18T00:11:34;6.20;;;5.23;;
12290;SDS011;6208;48.956;9.076;2023-05-18T00:14:22;6.25;;;5.65;;
12290;SDS011;6208;48.956;9.076;2023-05-18T00:17:06;6.85;;;5.15;;
12290;SDS011;6208;48.956;9.076;2023-05-18T00:19:50;6.33;;;5.37;;
12290;SDS011;6208;48.956;9.076;2023-05-18T00:22:34;7.27;;;5.30;;
12290;SDS011;6208;48.956;9.076;2023-05-18T00:25:21;9.70;;;5.50;;
12290;SDS011;6208;48.956;9.076;2023-05-18T00:28:06;7.70;;;5.25;;
12290;SDS011;6208;48.956;9.076;2023-05-18T00:30:50;8.17;;;5.30;;
12290;SDS011;6208;48.956;9.076;2023-05-18T00:33:36;9.37;;;5.23;;
12290;SDS011;6208;48.956;9.076;2023-05-18T00:36:20;5.77;;;5.10;;
12290;SDS011;6208;48.956;9.076;2023-05-18T00:39:05;7.60;;;4.97;;
12290;SDS011;6208;48.956;9.076;2023-05-18T00:41:50;5.40;;;5.00;;
12290;SDS011;6208;48.956;9.076;2023-05-18T00:44:34;10.10;;;5.40;;
12290;SDS011;6208;48.956;9.076;2023-05-18T00:47:18;5.43;;;5.03;;
12290;SDS011;6208;48.956;9.076;2023-05-18T00:50:04;7.95;;;5.38;;
12290;SDS011;6208;48.956;9.076;2023-05-18T00:52:48;6.17;;;4.40;;
12290;SDS011;6208;48.956;9.076;2023-05-18T00:55:33;5.67;;;4.53;;
12290;SDS011;6208;48.956;9.076;2023-05-18T00:58:18;5.80;;;5.30;;
12290;SDS011;6208;48.956;9.076;2023-05-18T01:01:02;5.40;;;4.90;;
12290;SDS011;6208;48.956;9.076;2023-05-18T01:03:48;6.40;;;5.43;;
12290;SDS011;6208;48.956;9.076;2023-05-18T01:06:39;6.70;;;4.60;;
12290;SDS011;6208;48.956;9.076;2023-05-18T01:09:24;6.10;;;4.50;;
12290;SDS011;6208;48.956;9.076;2023-05-18T01:12:16;6.18;;;4.57;;
12290;SDS011;6208;48.956;9.076;2023-05-18T01:15:09;5.57;;;4.20;;
12290;SDS011;6208;48.956;9.076;2023-05-18T01:21:22;8.13;;;5.50;;
12290;SDS011;6208;48.956;9.076;2023-05-18T01:27:16;7.18;;;4.40;;
12290;SDS011;6208;48.956;9.076;2023-05-18T01:30:02;8.63;;;4.93;;
12290;SDS011;6208;48.956;9.076;2023-05-18T01:32:47;5.63;;;4.25;;
12290;SDS011;6208;48.956;9.076;2023-05-18T01:35:31;6.90;;;4.57;;
12290;SDS011;6208;48.956;9.076;2023-05-18T01:38:20;4.78;;;4.32;;
12290;SDS011;6208;48.956;9.076;2023-05-18T01:41:25;5.00;;;4.50;;
12290;SDS011;6208;48.956;9.076;2023-05-18T01:44:14;5.35;;;4.85;;
12290;SDS011;6208;48.956;9.076;2023-05-18T01:47:14;6.60;;;4.55;;
12290;SDS011;6208;48.956;9.076;2023-05-18T01:50:03;6.38;;;5.05;;
12290;SDS011;6208;48.956;9.076;2023-05-18T01:52:57;7.90;;;5.45;;
12290;SDS011;6208;48.956;9.076;2023-05-18T01:55:47;5.82;;;5.25;;
12290;SDS011;6208;48.956;9.076;2023-05-18T01:58:33;6.93;;;5.30;;
12290;SDS011;6208;48.956;9.076;2023-05-18T02:01:22;4.90;;;4.30;;
12290;SDS011;6208;48.956;9.076;2023-05-18T02:04:07;6.10;;;5.27;;
12290;SDS011;6208;48.956;9.076;2023-05-18T02:06:52;5.90;;;5.13;;
12290;SDS011;6208;48.956;9.076;2023-05-18T02:09:37;6.93;;;5.80;;
12290;SDS011;6208;48.956;9.076;2023-05-18T02:12:22;5.63;;;5.18;;
12290;SDS011;6208;48.956;9.076;2023-05-18T02:15:06;6.68;;;5.53;;
12290;SDS011;6208;48.956;9.076;2023-05-18T02:17:51;7.97;;;5.63;;
12290;SDS011;6208;48.956;9.076;2023-05-18T02:20:40;6.38;;;5.72;;
12290;SDS011;6208;48.956;9.076;2023-05-18T02:23:25;5.95;;;5.45;;
12290;SDS011;6208;48.956;9.076;2023-05-18T02:26:09;6.90;;;5.18;;
12290;SDS011;6208;48.956;9.076;2023-05-18T02:28:53;7.28;;;5.65;;
12290;SDS011;6208;48.956;9.076;2023-05-18T02:31:37;8.00;;;6.00;;
12290;SDS011;6208;48.956;9.076;2023-05-18T02:34:21;6.30;;;5.45;;
12290;SDS011;6208;48.956;9.076;2023-05-18T02:37:07;9.55;;;5.82;;
12290;SDS011;6208;48.956;9.076;2023-05-18T02:39:51;7.60;;;5.65;;
12290;SDS011;6208;48.956;9.076;2023-05-18T02:42:35;8.20;;;5.35;;
12290;SDS011;6208;48.956;9.076;2023-05-18T02:45:19;7.28;;;5.18;;
12290;SDS011;6208;48.956;9.076;2023-05-18T02:48:04;6.07;;;5.28;;
12290;SDS011;6208;48.956;9.076;2023-05-18T02:50:49;7.70;;;5.25;;
12290;SDS011;6208;48.956;9.076;2023-05-18T02:53:33;7.18;;;5.75;;
12290;SDS011;6208;48.956;9.076;2023-05-18T02:56:17;8.95;;;4.72;;
12290;SDS011;6208;48.956;9.076;2023-05-18T02:59:01;7.00;;;4.55;;
12290;SDS011;6208;48.956;9.076;2023-05-18T03:01:46;7.90;;;4.68;;
12290;SDS011;6208;48.956;9.076;2023-05-18T03:04:31;6.78;;;4.55;;
12290;SDS011;6208;48.956;9.076;2023-05-18T03:07:15;7.18;;;4.57;;
12290;SDS011;6208;48.956;9.076;2023-05-18T03:10:01;4.35;;;3.95;;
12290;SDS011;6208;48.956;9.076;2023-05-18T03:12:46;9.83;;;4.70;;
12290;SDS011;6208;48.956;9.076;2023-05-18T03:15:30;8.23;;;4.32;;
12290;SDS011;6208;48.956;9.076;2023-05-18T03:18:15;6.78;;;3.90;;
12290;SDS011;6208;48.956;9.076;2023-05-18T03:21:00;4.10;;;3.67;;
12290;SDS011;6208;48.956;9.076;2023-05-18T03:23:44;6.18;;;3.88;;
12290;SDS011;6208;48.956;9.076;2023-05-18T03:26:28;6.28;;;3.70;;
12290;SDS011;6208;48.956;9.076;2023-05-18T03:29:13;4.75;;;3.95;;
12290;SDS011;6208;48.956;9.076;2023-05-18T03:31:57;4.20;;;3.80;;
12290;SDS011;6208;48.956;9.076;2023-05-18T03:34:41;6.68;;;4.10;;
12290;SDS011;6208;48.956;9.076;2023-05-18T03:37:27;4.38;;;3.80;;
12290;SDS011;6208;48.956;9.076;2023-05-18T03:40:13;7.25;;;4.30;;
12290;SDS011;6208;48.956;9.076;2023-05-18T03:42:58;6.43;;;3.38;;
12290;SDS011;6208;48.956;9.076;2023-05-18T03:45:42;5.97;;;4.05;;
12290;SDS011;6208;48.956;9.076;2023-05-18T03:48:27;8.20;;;3.88;;
12290;SDS011;6208;48.956;9.076;2023-05-18T03:51:12;8.02;;;3.72;;
12290;SDS011;6208;48.956;9.076;2023-05-18T03:53:56;9.35;;;4.05;;
12290;SDS011;6208;48.956;9.076;2023-05-18T03:56:40;6.80;;;3.88;;
12290;SDS011;6208;48.956;9.076;2023-05-18T03:59:25;5.10;;;3.75;;
12290;SDS011;6208;48.956;9.076;2023-05-18T04:02:10;9.20;;;3.78;;
12290;SDS011;6208;48.956;9.076;2023-05-18T04:04:55;4.28;;;3.25;;
12290;SDS011;6208;48.956;9.076;2023-05-18T04:07:40;5.72;;;3.88;;
12290;SDS011;6208;48.956;9.076;2023-05-18T04:10:29;4.72;;;3.33;;
12290;SDS011;6208;48.956;9.076;2023-05-18T04:13:13;7.45;;;3.72;;
12290;SDS011;6208;48.956;9.076;2023-05-18T04:15:57;7.50;;;3.67;;
12290;SDS011;6208;48.956;9.076;2023-05-18T04:18:42;7.00;;;3.70;;
12290;SDS011;6208;48.956;9.076;2023-05-18T04:21:27;5.63;;;3.67;;
12290;SDS011;6208;48.956;9.076;2023-05-18T04:24:18;4.93;;;3.30;;
12290;SDS011;6208;48.956;9.076;2023-05-18T04:27:03;7.13;;;3.42;;
12290;SDS011;6208;48.956;9.076;2023-05-18T04:29:47;6.45;;;3.75;;
12290;SDS011;6208;48.956;9.076;2023-05-18T04:32:31;6.28;;;3.55;;
12290;SDS011;6208;48.956;9.076;2023-05-18T04:35:18;5.22;;;3.58;;
12290;SDS011;6208;48.956;9.076;2023-05-18T04:38:03;4.55;;;3.15;;
12290;SDS011;6208;48.956;9.076;2023-05-18T04:40:48;6.13;;;3.30;;
12290;SDS011;6208;48.956;9.076;2023-05-18T04:43:33;6.07;;;3.40;;
12290;SDS011;6208;48.956;9.076;2023-05-18T04:46:19;7.07;;;3.28;;
12290;SDS011;6208;48.956;9.076;2023-05-18T04:49:07;7.72;;;3.38;;
12290;SDS011;6208;48.956;9.076;2023-05-18T04:51:52;4.05;;;3.28;;
12290;SDS011;6208;48.956;9.076;2023-05-18T04:54:41;6.32;;;3.50;;
12290;SDS011;6208;48.956;9.076;2023-05-18T04:57:26;3.97;;;3.20;;
12290;SDS011;6208;48.956;9.076;2023-05-18T05:00:10;5.55;;;3.10;;
12290;SDS011;6208;48.956;9.076;2023-05-18T05:02:55;6.50;;;3.42;;
12290;SDS011;6208;48.956;9.076;2023-05-18T05:05:40;5.05;;;3.28;;
12290;SDS011;6208;48.956;9.076;2023-05-18T05:08:24;5.10;;;3.05;;
12290;SDS011;6208;48.956;9.076;2023-05-18T05:11:09;5.63;;;3.33;;
12290;SDS011;6208;48.956;9.076;2023-05-18T05:13:53;3.97;;;3.33;;
12290;SDS011;6208;48.956;9.076;2023-05-18T05:16:37;6.17;;;3.40;;
12290;SDS011;6208;48.956;9.076;2023-05-18T05:19:22;9.60;;;3.70;;
12290;SDS011;6208;48.956;9.076;2023-05-18T05:22:06;4.22;;;3.10;;
12290;SDS011;6208;48.956;9.076;2023-05-18T05:24:50;6.75;;;3.38;;
12290;SDS011;6208;48.956;9.076;2023-05-18T05:27:34;6.03;;;3.13;;
12290;SDS011;6208;48.956;9.076;2023-05-18T05:30:19;4.78;;;3.42;;
12290;SDS011;6208;48.956;9.076;2023-05-18T05:33:03;7.80;;;3.15;;
12290;SDS011;6208;48.956;9.076;2023-05-18T05:35:48;6.47;;;3.28;;
12290;SDS011;6208;48.956;9.076;2023-05-18T05:38:32;5.07;;;3.25;;
12290;SDS011;6208;48.956;9.076;2023-05-18T05:41:18;6.72;;;3.50;;
12290;SDS011;6208;48.956;9.076;2023-05-18T05:44:03;7.80;;;3.70;;
12290;SDS011;6208;48.956;9.076;2023-05-18T05:46:47;8.20;;;3.47;;
12290;SDS011;6208;48.956;9.076;2023-05-18T05:49:31;6.30;;;3.05;;
12290;SDS011;6208;48.956;9.076;2023-05-18T05:52:16;8.70;;;3.40;;
12290;SDS011;6208;48.956;9.076;2023-05-18T05:55:00;7.20;;;3.20;;
12290;SDS011;6208;48.956;9.076;2023-05-18T05:57:44;6.40;;;3.50;;
12290;SDS011;6208;48.956;9.076;2023-05-18T06:00:28;5.88;;;3.47;;
12290;SDS011;6208;48.956;9.076;2023-05-18T06:03:13;5.00;;;2.95;;
12290;SDS011;6208;48.956;9.076;2023-05-18T06:05:58;6.45;;;3.05;;
12290;SDS011;6208;48.956;9.076;2023-05-18T06:08:42;6.63;;;3.10;;
12290;SDS011;6208;48.956;9.076;2023-05-18T06:11:27;7.05;;;2.72;;
12290;SDS011;6208;48.956;9.076;2023-05-18T06:14:11;5.50;;;2.92;;
12290;SDS011;6208;48.956;9.076;2023-05-18T06:16:55;3.63;;;3.15;;
12290;SDS011;6208;48.956;9.076;2023-05-18T06:19:40;8.35;;;3.08;;
12290;SDS011;6208;48.956;9.076;2023-05-18T06:22:23;4.50;;;2.70;;
12290;SDS011;6208;48.956;9.076;2023-05-18T06:25:08;8.00;;;3.40;;
12290;SDS011;6208;48.956;9.076;2023-05-18T06:27:53;5.32;;;2.95;;
12290;SDS011;6208;48.956;9.076;2023-05-18T06:30:37;6.63;;;3.00;;
12290;SDS011;6208;48.956;9.076;2023-05-18T06:33:22;5.90;;;2.80;;
12290;SDS011;6208;48.956;9.076;2023-05-18T06:36:06;6.63;;;3.45;;
12290;SDS011;6208;48.956;9.076;2023-05-18T06:38:51;4.90;;;3.03;;
12290;SDS011;6208;48.956;9.076;2023-05-18T06:41:35;5.50;;;2.60;;
12290;SDS011;6208;48.956;9.076;2023-05-18T06:44:19;6.57;;;2.78;;
12290;SDS011;6208;48.956;9.076;2023-05-18T06:47:04;6.57;;;3.45;;
12290;SDS011;6208;48.956;9.076;2023-05-18T06:49:48;7.13;;;2.65;;
12290;SDS011;6208;48.956;9.076;2023-05-18T06:52:34;6.28;;;3.05;;
12290;SDS011;6208;48.956;9.076;2023-05-18T06:55:18;5.45;;;2.85;;
12290;SDS011;6208;48.956;9.076;2023-05-18T06:58:03;6.43;;;2.67;;
12290;SDS011;6208;48.956;9.076;2023-05-18T07:00:47;9.75;;;3.35;;
12290;SDS011;6208;48.956;9.076;2023-05-18T07:03:31;7.72;;;2.78;;
12290;SDS011;6208;48.956;9.076;2023-05-18T07:06:16;7.05;;;3.03;;
12290;SDS011;6208;48.956;9.076;2023-05-18T07:09:01;5.53;;;3.08;;
12290;SDS011;6208;48.956;9.076;2023-05-18T07:11:47;5.10;;;2.90;;
12290;SDS011;6208;48.956;9.076;2023-05-18T07:14:31;4.18;;;2.33;;
12290;SDS011;6208;48.956;9.076;2023-05-18T07:17:16;3.90;;;2.58;;
12290;SDS011;6208;48.956;9.076;2023-05-18T07:20:00;8.82;;;2.83;;
12290;SDS011;6208;48.956;9.076;2023-05-18T07:22:44;4.00;;;2.45;;
12290;SDS011;6208;48.956;9.076;2023-05-18T07:25:29;5.32;;;2.60;;
12290;SDS011;6208;48.956;9.076;2023-05-18T07:28:14;5.28;;;2.50;;
12290;SDS011;6208;48.956;9.076;2023-05-18T07:30:58;3.55;;;2.53;;
12290;SDS011;6208;48.956;9.076;2023-05-18T07:33:43;4.22;;;2.60;;
12290;SDS011;6208;48.956;9.076;2023-05-18T07:36:27;6.72;;;3.05;;
12290;SDS011;6208;48.956;9.076;2023-05-18T07:39:12;10.65;;;3.33;;
12290;SDS011;6208;48.956;9.076;2023-05-18T07:42:01;8.82;;;3.22;;
12290;SDS011;6208;48.956;9.076;2023-05-18T07:44:45;6.05;;;3.28;;
12290;SDS011;6208;48.956;9.076;2023-05-18T07:47:29;4.80;;;2.88;;
12290;SDS011;6208;48.956;9.076;2023-05-18T07:50:14;6.78;;;2.92;;
12290;SDS011;6208;48.956;9.076;2023-05-18T07:52:58;8.68;;;3.17;;
12290;SDS011;6208;48.956;9.076;2023-05-18T07:55:43;7.60;;;3.45;;
12290;SDS011;6208;48.956;9.076;2023-05-18T07:58:28;4.70;;;3.03;;
12290;SDS011;6208;48.956;9.076;2023-05-18T08:01:12;6.82;;;2.83;;
12290;SDS011;6208;48.956;9.076;2023-05-18T08:03:56;6.47;;;2.67;;
12290;SDS011;6208;48.956;9.076;2023-05-18T08:06:40;7.40;;;2.97;;
12290;SDS011;6208;48.956;9.076;2023-05-18T08:09:24;4.72;;;3.15;;
12290;SDS011;6208;48.956;9.076;2023-05-18T08:12:09;4.97;;;2.83;;
12290;SDS011;6208;48.956;9.076;2023-05-18T08:14:53;8.18;;;3.13;;
12290;SDS011;6208;48.956;9.076;2023-05-18T08:17:37;8.10;;;2.78;;
12290;SDS011;6208;48.956;9.076;2023-05-18T08:20:22;10.25;;;3.38;;
12290;SDS011;6208;48.956;9.076;2023-05-18T08:23:08;7.25;;;3.80;;
12290;SDS011;6208;48.956;9.076;2023-05-18T08:25:53;6.15;;;3.53;;
12290;SDS011;6208;48.956;9.076;2023-05-18T08:28:39;6.20;;;2.90;;
12290;SDS011;6208;48.956;9.076;2023-05-18T08:31:23;7.95;;;2.45;;
12290;SDS011;6208;48.956;9.076;2023-05-18T08:34:08;5.00;;;2.90;;
12290;SDS011;6208;48.956;9.076;2023-05-18T08:36:55;7.95;;;2.90;;
12290;SDS011;6208;48.956;9.076;2023-05-18T08:39:40;4.47;;;2.72;;
12290;SDS011;6208;48.956;9.076;2023-05-18T08:45:57;9.35;;;2.55;;
12290;SDS011;6208;48.956;9.076;2023-05-18T08:48:48;6.40;;;2.67;;
12290;SDS011;6208;48.956;9.076;2023-05-18T08:51:36;6.90;;;2.63;;
12290;SDS011;6208;48.956;9.076;2023-05-18T08:54:21;4.80;;;3.22;;
12290;SDS011;6208;48.956;9.076;2023-05-18T08:57:07;5.88;;;2.97;;
12290;SDS011;6208;48.956;9.076;2023-05-18T08:59:54;5.93;;;2.83;;
12290;SDS011;6208;48.956;9.076;2023-05-18T09:02:40;4.68;;;2.90;;
12290;SDS011;6208;48.956;9.076;2023-05-18T09:05:25;4.57;;;2.83;;
12290;SDS011;6208;48.956;9.076;2023-05-18T09:08:11;6.22;;;3.10;;
12290;SDS011;6208;48.956;9.076;2023-05-18T09:10:55;5.28;;;3.00;;
12290;SDS011;6208;48.956;9.076;2023-05-18T09:13:41;6.10;;;3.00;;
12290;SDS011;6208;48.956;9.076;2023-05-18T09:16:27;6.47;;;3.08;;
12290;SDS011;6208;48.956;9.076;2023-05-18T09:19:12;4.88;;;3.13;;
12290;SDS011;6208;48.956;9.076;2023-05-18T09:21:57;5.50;;;2.83;;
12290;SDS011;6208;48.956;9.076;2023-05-18T09:24:41;8.63;;;3.22;;
12290;SDS011;6208;48.956;9.076;2023-05-18T09:27:26;5.45;;;2.55;;
12290;SDS011;6208;48.956;9.076;2023-05-18T09:30:11;4.95;;;3.28;;
12290;SDS011;6208;48.956;9.076;2023-05-18T09:32:56;7.43;;;2.88;;
12290;SDS011;6208;48.956;9.076;2023-05-18T09:35:40;5.95;;;3.00;;
12290;SDS011;6208;48.956;9.076;2023-05-18T09:38:24;6.75;;;2.88;;
12290;SDS011;6208;48.956;9.076;2023-05-18T09:41:14;5.53;;;2.75;;
12290;SDS011;6208;48.956;9.076;2023-05-18T09:44:00;6.22;;;2.72;;
12290;SDS011;6208;48.956;9.076;2023-05-18T09:46:53;7.78;;;3.05;;
12290;SDS011;6208;48.956;9.076;2023-05-18T09:49:39;4.32;;;2.63;;
12290;SDS011;6208;48.956;9.076;2023-05-18T09:52:26;6.55;;;2.83;;
12290;SDS011;6208;48.956;9.076;2023-05-18T09:55:11;5.70;;;3.42;;
12290;SDS011;6208;48.956;9.076;2023-05-18T09:57:56;7.90;;;3.30;;
12290;SDS011;6208;48.956;9.076;2023-05-18T10:00:41;3.97;;;2.25;;
12290;SDS011;6208;48.956;9.076;2023-05-18T10:03:32;6.45;;;3.05;;
12290;SDS011;6208;48.956;9.076;2023-05-18T10:06:21;5.35;;;2.88;;
12290;SDS011;6208;48.956;9.076;2023-05-18T10:09:13;6.35;;;2.80;;
12290;SDS011;6208;48.956;9.076;2023-05-18T10:11:59;4.20;;;2.75;;
12290;SDS011;6208;48.956;9.076;2023-05-18T10:14:44;8.43;;;2.67;;
12290;SDS011;6208;48.956;9.076;2023-05-18T10:17:29;4.60;;;3.10;;
12290;SDS011;6208;48.956;9.076;2023-05-18T10:20:17;6.22;;;3.08;;
12290;SDS011;6208;48.956;9.076;2023-05-18T10:23:02;8.77;;;2.85;;
12290;SDS011;6208;48.956;9.076;2023-05-18T10:25:48;5.32;;;2.42;;
12290;SDS011;6208;48.956;9.076;2023-05-18T10:28:37;4.35;;;2.63;;
12290;SDS011;6208;48.956;9.076;2023-05-18T10:31:26;8.15;;;2.63;;
12290;SDS011;6208;48.956;9.076;2023-05-18T10:34:12;5.78;;;3.20;;
12290;SDS011;6208;48.956;9.076;2023-05-18T10:36:59;4.15;;;3.00;;
12290;SDS011;6208;48.956;9.076;2023-05-18T10:39:46;5.05;;;3.05;;
12290;SDS011;6208;48.956;9.076;2023-05-18T10:42:33;6.82;;;2.78;;
12290;SDS011;6208;48.956;9.076;2023-05-18T10:45:18;5.63;;;2.88;;
12290;SDS011;6208;48.956;9.076;2023-05-18T10:48:03;5.60;;;2.72;;
12290;SDS011;6208;48.956;9.076;2023-05-18T10:50:48;3.55;;;2.70;;
12290;SDS011;6208;48.956;9.076;2023-05-18T10:53:33;6.70;;;3.03;;
12290;SDS011;6208;48.956;9.076;2023-05-18T10:56:18;4.88;;;2.85;;
12290;SDS011;6208;48.956;9.076;2023-05-18T10:59:03;5.65;;;2.28;;
12290;SDS011;6208;48.956;9.076;2023-05-18T11:01:49;5.78;;;2.60;;
12290;SDS011;6208;48.956;9.076;2023-05-18T11:04:37;7.60;;;2.83;;
12290;SDS011;6208;48.956;9.076;2023-05-18T11:07:22;5.18;;;2.70;;
12290;SDS011;6208;48.956;9.076;2023-05-18T11:10:08;6.72;;;2.70;;
12290;SDS011;6208;48.956;9.076;2023-05-18T11:12:54;5.82;;;2.42;;
12290;SDS011;6208;48.956;9.076;2023-05-18T11:16:25;6.10;;;2.42;;
12290;SDS011;6208;48.956;9.076;2023-05-18T11:18:43;4.32;;;2.60;;
12290;SDS011;6208;48.956;9.076;2023-05-18T11:21:30;6.72;;;3.10;;
12290;SDS011;6208;48.956;9.076;2023-05-18T11:24:28;5.05;;;2.90;;
12290;SDS011;6208;48.956;9.076;2023-05-18T11:27:14;4.78;;;3.05;;
12290;SDS011;6208;48.956;9.076;2023-05-18T11:29:59;3.83;;;2.45;;
12290;SDS011;6208;48.956;9.076;2023-05-18T11:32:48;6.10;;;3.00;;
12290;SDS011;6208;48.956;9.076;2023-05-18T11:35:52;5.68;;;2.90;;
12290;SDS011;6208;48.956;9.076;2023-05-18T11:41:34;3.83;;;2.75;;
12290;SDS011;6208;48.956;9.076;2023-05-18T11:44:24;5.53;;;2.60;;
12290;SDS011;6208;48.956;9.076;2023-05-18T11:47:11;6.95;;;2.58;;
12290;SDS011;6208;48.956;9.076;2023-05-18T11:49:56;7.15;;;2.90;;
12290;SDS011;6208;48.956;9.076;2023-05-18T11:52:45;5.60;;;2.30;;
12290;SDS011;6208;48.956;9.076;2023-05-18T11:55:36;4.20;;;2.83;;
12290;SDS011;6208;48.956;9.076;2023-05-18T11:58:22;6.82;;;2.92;;
12290;SDS011;6208;48.956;9.076;2023-05-18T12:01:07;3.78;;;2.20;;
12290;SDS011;6208;48.956;9.076;2023-05-18T12:03:54;4.88;;;2.67;;
12290;SDS011;6208;48.956;9.076;2023-05-18T12:06:39;8.18;;;2.47;;
12290;SDS011;6208;48.956;9.076;2023-05-18T12:09:23;5.18;;;2.80;;
12290;SDS011;6208;48.956;9.076;2023-05-18T12:12:09;4.53;;;2.58;;
12290;SDS011;6208;48.956;9.076;2023-05-18T12:14:55;5.95;;;2.63;;
12290;SDS011;6208;48.956;9.076;2023-05-18T12:17:41;6.47;;;2.72;;
12290;SDS011;6208;48.956;9.076;2023-05-18T12:20:26;5.07;;;2.40;;
12290;SDS011;6208;48.956;9.076;2023-05-18T12:23:11;3.35;;;2.05;;
12290;SDS011;6208;48.956;9.076;2023-05-18T12:25:56;3.55;;;2.70;;
12290;SDS011;6208;48.956;9.076;2023-05-18T12:28:41;5.47;;;2.80;;
12290;SDS011;6208;48.956;9.076;2023-05-18T12:31:25;5.25;;;2.65;;
12290;SDS011;6208;48.956;9.076;2023-05-18T12:34:10;7.57;;;2.85;;
12290;SDS011;6208;48.956;9.076;2023-05-18T12:36:55;10.77;;;2.90;;
12290;SDS011;6208;48.956;9.076;2023-05-18T12:39:39;6.82;;;2.90;;
12290;SDS011;6208;48.956;9.076;2023-05-18T12:42:24;5.60;;;2.28;;
12290;SDS011;6208;48.956;9.076;2023-05-18T12:45:09;6.45;;;2.83;;
12290;SDS011;6208;48.956;9.076;2023-05-18T12:47:54;3.15;;;2.30;;
12290;SDS011;6208;48.956;9.076;2023-05-18T12:50:46;3.45;;;2.55;;
12290;SDS011;6208;48.956;9.076;2023-05-18T12:53:41;4.00;;;2.22;;
12290;SDS011;6208;48.956;9.076;2023-05-18T12:56:25;3.65;;;2.30;;
12290;SDS011;6208;48.956;9.076;2023-05-18T12:59:10;5.10;;;2.40;;
12290;SDS011;6208;48.956;9.076;2023-05-18T13:01:55;5.18;;;2.42;;
12290;SDS011;6208;48.956;9.076;2023-05-18T13:04:41;4.85;;;2.28;;
12290;SDS011;6208;48.956;9.076;2023-05-18T13:07:25;4.65;;;2.45;;
12290;SDS011;6208;48.956;9.076;2023-05-18T13:10:10;6.13;;;2.22;;
12290;SDS011;6208;48.956;9.076;2023-05-18T13:12:55;4.93;;;2.65;;
12290;SDS011;6208;48.956;9.076;2023-05-18T13:15:46;6.07;;;3.05;;
12290;SDS011;6208;48.956;9.076;2023-05-18T13:18:31;6.57;;;2.33;;
12290;SDS011;6208;48.956;9.076;2023-05-18T13:21:15;3.92;;;2.33;;
12290;SDS011;6208;48.956;9.076;2023-05-18T13:24:02;5.90;;;2.33;;
12290;SDS011;6208;48.956;9.076;2023-05-18T13:26:47;3.67;;;2.35;;
12290;SDS011;6208;48.956;9.076;2023-05-18T13:29:31;2.60;;;1.95;;
12290;SDS011;6208;48.956;9.076;2023-05-18T13:32:16;9.30;;;2.60;;
12290;SDS011;6208;48.956;9.076;2023-05-18T13:35:01;8.50;;;2.60;;
12290;SDS011;6208;48.956;9.076;2023-05-18T13:37:46;4.85;;;2.72;;
12290;SDS011;6208;48.956;9.076;2023-05-18T13:40:31;6.47;;;2.55;;
12290;SDS011;6208;48.956;9.076;2023-05-18T13:43:15;3.28;;;2.28;;
12290;SDS011;6208;48.956;9.076;2023-05-18T13:46:00;7.30;;;2.55;;
12290;SDS011;6208;48.956;9.076;2023-05-18T13:48:45;7.20;;;2.80;;
12290;SDS011;6208;48.956;9.076;2023-05-18T13:51:29;4.45;;;2.35;;
12290;SDS011;6208;48.956;9.076;2023-05-18T13:54:14;3.95;;;2.22;;
12290;SDS011;6208;48.956;9.076;2023-05-18T13:56:58;6.75;;;2.67;;
12290;SDS011;6208;48.956;9.076;2023-05-18T13:59:43;3.78;;;2.28;;
12290;SDS011;6208;48.956;9.076;2023-05-18T14:02:28;5.85;;;2.40;;
12290;SDS011;6208;48.956;9.076;2023-05-18T14:05:12;3.80;;;2.13;;
12290;SDS011;6208;48.956;9.076;2023-05-18T14:07:57;7.28;;;2.50;;
12290;SDS011;6208;48.956;9.076;2023-05-18T14:10:41;5.55;;;2.47;;
12290;SDS011;6208;48.956;9.076;2023-05-18T14:13:26;7.18;;;2.70;;
12290;SDS011;6208;48.956;9.076;2023-05-18T14:16:10;4.82;;;2.58;;
12290;SDS011;6208;48.956;9.076;2023-05-18T14:18:55;5.22;;;2.53;;
12290;SDS011;6208;48.956;9.076;2023-05-18T14:21:40;4.45;;;2.40;;
12290;SDS011;6208;48.956;9.076;2023-05-18T14:24:24;6.53;;;2.78;;
12290;SDS011;6208;48.956;9.076;2023-05-18T14:27:09;3.35;;;2.40;;
12290;SDS011;6208;48.956;9.076;2023-05-18T14:29:53;6.20;;;2.72;;
12290;SDS011;6208;48.956;9.076;2023-05-18T14:32:38;5.75;;;2.60;;
12290;SDS011;6208;48.956;9.076;2023-05-18T14:35:23;4.15;;;2.45;;
12290;SDS011;6208;48.956;9.076;2023-05-18T14:38:07;6.32;;;2.50;;
12290;SDS011;6208;48.956;9.076;2023-05-18T14:40:52;6.47;;;2.72;;
12290;SDS011;6208;48.956;9.076;2023-05-18T14:43:36;4.32;;;2.63;;
12290;SDS011;6208;48.956;9.076;2023-05-18T14:46:21;5.07;;;2.47;;
12290;SDS011;6208;48.956;9.076;2023-05-18T14:49:06;5.28;;;2.85;;
12290;SDS011;6208;48.956;9.076;2023-05-18T14:51:50;7.70;;;2.67;;
12290;SDS011;6208;48.956;9.076;2023-05-18T14:54:34;5.20;;;2.60;;
12290;SDS011;6208;48.956;9.076;2023-05-18T14:57:19;5.75;;;2.53;;
12290;SDS011;6208;48.956;9.076;2023-05-18T15:00:03;3.72;;;2.10;;
12290;SDS011;6208;48.956;9.076;2023-05-18T15:02:48;5.35;;;2.25;;
12290;SDS011;6208;48.956;9.076;2023-05-18T15:05:32;7.28;;;2.28;;
12290;SDS011;6208;48.956;9.076;2023-05-18T15:08:17;4.45;;;2.63;;
12290;SDS011;6208;48.956;9.076;2023-05-18T15:11:02;4.95;;;2.22;;
12290;SDS011;6208;48.956;9.076;2023-05-18T15:13:46;4.93;;;2.17;;
12290;SDS011;6208;48.956;9.076;2023-05-18T15:16:31;5.20;;;2.17;;
12290;SDS011;6208;48.956;9.076;2023-05-18T15:19:16;5.90;;;2.53;;
12290;SDS011;6208;48.956;9.076;2023-05-18T15:22:00;3.55;;;2.05;;
12290;SDS011;6208;48.956;9.076;2023-05-18T15:24:45;4.22;;;2.53;;
12290;SDS011;6208;48.956;9.076;2023-05-18T15:27:29;9.38;;;2.47;;
12290;SDS011;6208;48.956;9.076;2023-05-18T15:30:14;2.83;;;2.30;;
12290;SDS011;6208;48.956;9.076;2023-05-18T15:32:58;6.57;;;2.60;;
12290;SDS011;6208;48.956;9.076;2023-05-18T15:35:46;7.80;;;2.45;;
12290;SDS011;6208;48.956;9.076;2023-05-18T15:38:31;7.03;;;2.42;;
12290;SDS011;6208;48.956;9.076;2023-05-18T15:41:15;3.60;;;2.47;;
12290;SDS011;6208;48.956;9.076;2023-05-18T15:44:01;3.55;;;2.20;;
12290;SDS011;6208;48.956;9.076;2023-05-18T15:46:46;3.13;;;2.10;;
12290;SDS011;6208;48.956;9.076;2023-05-18T15:49:30;6.53;;;2.28;;
12290;SDS011;6208;48.956;9.076;2023-05-18T15:52:15;2.80;;;2.25;;
12290;SDS011;6208;48.956;9.076;2023-05-18T15:55:00;3.92;;;2.30;;
12290;SDS011;6208;48.956;9.076;2023-05-18T15:57:44;6.20;;;3.00;;
12290;SDS011;6208;48.956;9.076;2023-05-18T16:00:29;6.38;;;2.65;;
12290;SDS011;6208;48.956;9.076;2023-05-18T16:03:14;4.00;;;2.10;;
12290;SDS011;6208;48.956;9.076;2023-05-18T16:05:59;4.72;;;2.50;;
12290;SDS011;6208;48.956;9.076;2023-05-18T16:08:44;8.32;;;2.10;;
12290;SDS011;6208;48.956;9.076;2023-05-18T16:11:28;4.15;;;2.50;;
12290;SDS011;6208;48.956;9.076;2023-05-18T16:14:13;9.38;;;2.42;;
12290;SDS011;6208;48.956;9.076;2023-05-18T16:16:57;5.80;;;2.40;;
12290;SDS011;6208;48.956;9.076;2023-05-18T16:19:41;5.57;;;2.15;;
12290;SDS011;6208;48.956;9.076;2023-05-18T16:22:26;3.33;;;2.28;;
12290;SDS011;6208;48.956;9.076;2023-05-18T16:25:10;5.55;;;2.42;;
12290;SDS011;6208;48.956;9.076;2023-05-18T16:27:55;4.22;;;2.45;;
12290;SDS011;6208;48.956;9.076;2023-05-18T16:30:40;4.18;;;2.28;;
12290;SDS011;6208;48.956;9.076;2023-05-18T16:33:25;5.97;;;2.50;;
12290;SDS011;6208;48.956;9.076;2023-05-18T16:36:09;4.18;;;2.30;;
12290;SDS011;6208;48.956;9.076;2023-05-18T16:38:54;4.82;;;2.60;;
12290;SDS011;6208;48.956;9.076;2023-05-18T16:41:38;3.78;;;2.35;;
12290;SDS011;6208;48.956;9.076;2023-05-18T16:44:23;4.72;;;2.42;;
12290;SDS011;6208;48.956;9.076;2023-05-18T16:47:08;3.10;;;2.30;;
12290;SDS011;6208;48.956;9.076;2023-05-18T16:49:52;6.80;;;2.25;;
12290;SDS011;6208;48.956;9.076;2023-05-18T16:52:37;3.55;;;2.05;;
12290;SDS011;6208;48.956;9.076;2023-05-18T16:55:22;4.68;;;2.42;;
12290;SDS011;6208;48.956;9.076;2023-05-18T16:58:06;5.43;;;2.30;;
12290;SDS011;6208;48.956;9.076;2023-05-18T17:00:51;2.85;;;2.10;;
12290;SDS011;6208;48.956;9.076;2023-05-18T17:03:38;5.85;;;2.60;;